Time;durP1;ratioP1;P1;durP2;ratioP2;P2;SDS_P1;SDS_P2;PMS_P1;PMS_P2;Temp;Humidity;BMP_temperature;BMP_pressure;BME280_temperature;BME280_humidity;BME280_pressure;Samples;Min_cycle;Max_cycle;Signal;HPM_P1;HPM_P2
2022/03/13 00:04:43;;;;;;;;;;;;;;;-1.80;82.05;101095.69;10580135;28;20043;-75
2022/03/13 00:09:45;;;;;;;19.23;10.23;;;;;;;-2.72;81.83;100949.78;10579706;28;20009;-75
2022/03/13 00:14:46;;;;;;;18.20;10.93;;;;;;;-2.18;82.19;101051.44;10567251;28;20035;-75
2022/03/13 00:19:48;;;;;;;17.98;10.80;;;;;;;-1.93;82.26;101098.88;10568956;28;20070;-75
2022/03/13 00:24:49;;;;;;;16.92;11.15;;;;;;;-1.95;81.98;101071.19;10587589;28;20043;-75
2022/03/13 00:29:50;;;;;;;16.15;10.35;;;;;;;-2.02;81.63;101088.88;10587257;28;20448;-75
2022/03/13 00:34:50;;;;;;;18.73;10.95;;;;;;;-2.46;81.92;101011.03;10586741;28;20039;-75
2022/03/13 00:39:51;;;;;;;21.65;10.57;;;;;;;-2.07;83.00;101050.00;10586515;28;20063;-75
2022/03/13 00:44:52;;;;;;;18.23;10.55;;;;;;;-2.17;82.81;101020.13;10586570;28;20051;-75
2022/03/13 00:49:53;;;;;;;13.82;8.75;;;;;;;-1.76;82.27;101082.47;10587176;28;20039;-75
2022/03/13 00:54:54;;;;;;;14.23;8.63;;;;;;;-1.99;81.56;101052.28;10586357;28;20044;-75
2022/03/13 00:59:55;;;;;;;15.98;8.65;;;;;;;-1.89;81.08;101076.97;10586426;28;20031;-76
2022/03/13 01:04:55;;;;;;;12.00;8.25;;;;;;;-2.19;80.35;101058.38;10586063;28;20456;-75
2022/03/13 01:09:56;;;;;;;13.43;8.27;;;;;;;-3.36;80.17;100870.25;10585333;28;20036;-75
2022/03/13 01:14:57;;;;;;;12.10;8.05;;;;;;;-3.23;79.78;100905.19;10566729;28;20047;-75
2022/03/13 01:19:59;;;;;;;14.60;8.27;;;;;;;-2.30;79.53;101092.72;10584834;28;20388;-76
2022/03/13 01:25:00;;;;;;;18.25;7.82;;;;;;;-3.35;78.98;100938.63;10578137;28;20414;-75
2022/03/13 01:30:03;;;;;;;14.45;8.30;;;;;;;-2.46;79.46;101089.06;10571188;28;20047;-75
2022/03/13 01:35:04;;;;;;;15.35;8.65;;;;;;;-2.37;79.00;101117.28;10543250;28;20036;-75
2022/03/13 01:40:11;;;;;;;12.75;7.47;;;;;;;-2.39;78.67;101111.31;10542507;28;20097;-75
2022/03/13 01:45:15;;;;;;;12.95;7.63;;;;;;;-2.36;78.99;101128.56;10540170;28;20147;-75
2022/03/13 01:50:17;;;;;;;14.55;8.00;;;;;;;-2.52;78.80;101103.19;10541666;28;20547;-75
2022/03/13 01:55:18;;;;;;;13.27;7.65;;;;;;;-2.35;78.88;101130.25;10563237;28;20039;-75
2022/03/13 02:00:20;;;;;;;14.52;8.10;;;;;;;-3.27;79.47;100976.38;10556495;28;20059;-75
2022/03/13 02:05:35;;;;;;;12.30;8.25;;;;;;;-2.38;79.38;101136.44;10561911;28;20461;-75
2022/03/13 02:10:36;;;;;;;12.57;8.20;;;;;;;-2.46;79.65;101115.09;10582947;28;20393;-75
2022/03/13 02:15:44;;;;;;;14.15;8.20;;;;;;;-2.26;79.31;101149.81;10584173;28;20035;-75
2022/03/13 02:20:46;;;;;;;17.35;9.13;;;;;;;-2.28;79.12;101147.28;10583599;28;20555;-75
2022/03/13 02:25:57;;;;;;;13.77;8.38;;;;;;;-2.45;79.49;101131.53;10582976;28;20032;-75
2022/03/13 02:31:02;;;;;;;16.00;8.95;;;;;;;-2.26;79.26;101155.88;10581866;28;20065;-75
2022/03/13 02:36:06;;;;;;;14.10;8.52;;;;;;;-2.46;78.90;101133.31;10581733;28;20035;-75
2022/03/13 02:41:06;;;;;;;12.40;8.70;;;;;;;-2.85;79.14;101081.22;10564269;28;20387;-75
2022/03/13 02:46:19;;;;;;;15.00;8.10;;;;;;;-2.49;78.56;101145.59;10579591;28;20138;-75
2022/03/13 02:51:20;;;;;;;20.75;9.35;;;;;;;-2.63;78.93;101161.78;10582477;28;20043;-75
2022/03/13 02:56:22;;;;;;;16.48;8.90;;;;;;;-2.73;79.46;101157.88;10581427;28;20419;-75
2022/03/13 03:01:23;;;;;;;12.43;8.30;;;;;;;-3.70;78.92;100998.06;10580963;28;20035;-74
2022/03/13 03:06:25;;;;;;;15.95;8.15;;;;;;;-2.59;78.89;101178.97;10580517;28;20566;-75
2022/03/13 03:11:25;;;;;;;12.68;8.63;;;;;;;-3.35;79.20;101029.56;10580740;28;20184;-75
2022/03/13 03:16:26;;;;;;;18.52;9.07;;;;;;;-2.48;78.92;101163.75;10580044;28;20187;-75
2022/03/13 03:21:27;;;;;;;12.55;8.13;;;;;;;-2.91;77.94;101112.66;10581407;28;20039;-75
2022/03/13 03:26:28;;;;;;;15.32;9.18;;;;;;;-2.66;78.34;101167.97;10579992;28;20035;-74
2022/03/13 03:31:29;;;;;;;21.40;10.70;;;;;;;-2.81;78.32;101184.22;10580618;28;20398;-75
2022/03/13 03:36:30;;;;;;;16.25;9.00;;;;;;;-2.69;78.88;101186.31;10580227;28;20562;-75
2022/03/13 03:41:31;;;;;;;16.05;8.10;;;;;;;-2.73;78.57;101170.88;10580133;28;20398;-75
2022/03/13 03:46:32;;;;;;;18.42;10.25;;;;;;;-2.88;78.70;101144.59;10579686;28;20056;-75
2022/03/13 03:51:33;;;;;;;25.70;10.25;;;;;;;-2.43;78.42;101206.03;10580093;28;20406;-76
2022/03/13 03:56:34;;;;;;;20.25;9.68;;;;;;;-2.80;78.04;101154.69;10579258;28;20058;-76
2022/03/13 04:01:42;;;;;;;20.23;9.93;;;;;;;-2.45;78.83;101201.78;10580331;28;20043;-74
2022/03/13 04:06:43;;;;;;;15.20;9.13;;;;;;;-2.39;78.45;101207.59;10579154;28;20388;-75
2022/03/13 04:11:46;;;;;;;16.30;10.35;;;;;;;-2.42;78.39;101189.53;10572311;28;20092;-74
2022/03/13 04:16:47;;;;;;;19.30;9.95;;;;;;;-2.30;78.19;101201.16;10536727;28;20040;-74
2022/03/13 04:21:48;;;;;;;20.73;10.52;;;;;;;-2.19;78.51;101203.31;10577869;28;20115;-75
2022/03/13 04:26:51;;;;;;;18.48;11.23;;;;;;;-2.24;77.97;101194.84;10572204;28;20130;-75
2022/03/13 04:31:53;;;;;;;31.15;9.70;;;;;;;-3.15;78.04;101044.34;10565038;28;20063;-75
2022/03/13 04:36:54;;;;;;;17.88;9.63;;;;;;;-3.38;77.59;101001.97;10564463;28;20057;-75
2022/03/13 04:41:55;;;;;;;14.35;9.48;;;;;;;-3.32;77.58;101014.72;10563997;28;20044;-75
2022/03/13 04:46:56;;;;;;;16.40;10.45;;;;;;;-2.21;77.64;101215.56;10556500;28;20050;-75
2022/03/13 04:51:57;;;;;;;19.15;10.55;;;;;;;-2.62;77.60;101150.47;10565166;28;20092;-75
2022/03/13 04:56:59;;;;;;;22.17;11.30;;;;;;;-2.36;77.45;101185.81;10545474;28;20047;-74
2022/03/13 05:02:00;;;;;;;19.88;9.95;;;;;;;-1.79;76.87;101290.16;10567018;28;20044;-78
2022/03/13 05:07:06;;;;;;;15.80;10.40;;;;;;;-1.76;76.55;101290.84;10572160;28;20043;-76
2022/03/13 05:12:10;;;;;;;17.63;10.35;;;;;;;-1.35;76.53;101345.53;10571827;28;20048;-75
2022/03/13 05:17:10;;;;;;;17.73;9.32;;;;;;;-2.35;76.65;101170.13;10560484;28;20055;-74
2022/03/13 05:22:11;;;;;;;15.98;9.55;;;;;;;-1.39;76.00;101328.34;10572753;28;20031;-77
2022/03/13 05:27:12;;;;;;;15.25;9.55;;;;;;;-1.28;76.53;101309.63;10560801;28;20040;-77
2022/03/13 05:32:13;;;;;;;18.70;9.05;;;;;;;-1.21;75.77;101287.56;10557080;28;20122;-75
2022/03/13 05:37:14;;;;;;;16.52;10.05;;;;;;;-0.86;75.34;101319.88;10566106;28;20051;-76
2022/03/13 05:42:15;;;;;;;16.85;10.05;;;;;;;-1.92;75.81;101155.22;10583987;28;20072;-78
2022/03/13 05:47:18;;;;;;;14.95;8.65;;;;;;;-0.71;75.21;101319.16;10570737;28;20063;-79
2022/03/13 05:52:20;;;;;;;16.17;9.18;;;;;;;-0.94;75.02;101286.31;10541821;28;20047;-77
2022/03/13 05:57:20;;;;;;;19.40;10.32;;;;;;;-0.49;74.99;101341.63;10576114;28;20092;-76
2022/03/13 06:02:22;;;;;;;15.20;9.77;;;;;;;-0.13;74.91;101336.41;10553570;28;20044;-75
2022/03/13 06:07:23;;;;;;;13.15;9.05;;;;;;;0.10;73.44;101305.69;10541803;28;20123;-76
2022/03/13 06:12:24;;;;;;;15.90;8.30;;;;;;;0.33;73.79;101307.97;10550198;28;20131;-76
2022/03/13 06:17:25;;;;;;;14.48;9.20;;;;;;;0.54;73.53;101290.34;10540554;28;20070;-77
2022/03/13 06:22:26;;;;;;;15.57;9.65;;;;;;;0.88;72.71;101289.38;10562010;28;20100;-77
2022/03/13 06:27:27;;;;;;;18.45;8.77;;;;;;;0.35;71.87;101209.41;10567552;28;20043;-77
2022/03/13 06:32:28;;;;;;;14.07;9.07;;;;;;;0.21;71.52;101167.50;10565810;28;20134;-77
2022/03/13 06:37:29;;;;;;;13.52;9.50;;;;;;;0.66;71.89;101274.00;10564321;28;20067;-77
2022/03/13 06:42:30;;;;;;;14.95;9.05;;;;;;;0.72;71.29;101275.44;10568135;28;20085;-78
2022/03/13 06:47:31;;;;;;;14.75;9.75;;;;;;;-0.17;71.42;101175.56;10562093;28;20434;-78
2022/03/13 06:52:32;;;;;;;16.13;9.68;;;;;;;0.55;71.31;101276.34;10566856;28;20044;-79
2022/03/13 06:57:33;;;;;;;15.50;9.38;;;;;;;0.30;70.80;101148.72;10564842;28;20051;-78
2022/03/13 07:02:34;;;;;;;13.07;9.18;;;;;;;1.01;69.33;101279.09;10563217;28;20048;-79
2022/03/13 07:07:35;;;;;;;16.80;10.02;;;;;;;1.22;69.54;101276.22;10561970;28;20600;-78
2022/03/13 07:12:36;;;;;;;14.20;8.68;;;;;;;1.68;67.54;101232.59;10554130;28;20116;-78
2022/03/13 07:17:36;;;;;;;12.75;8.50;;;;;;;1.76;66.31;101140.44;10565016;28;20134;-78
2022/03/13 07:22:37;;;;;;;13.98;9.10;;;;;;;1.98;65.37;101223.84;10558325;28;20118;-78
2022/03/13 07:27:39;;;;;;;15.05;8.88;;;;;;;1.34;65.70;101155.13;10574158;28;20042;-79
2022/03/13 07:32:41;;;;;;;13.82;7.47;;;;;;;0.64;65.42;101053.59;10566262;28;20051;-78
2022/03/13 07:37:42;;;;;;;11.48;8.63;;;;;;;2.23;65.08;101271.25;10548159;28;20043;-76
2022/03/13 07:42:43;;;;;;;16.80;9.20;;;;;;;1.50;65.61;101155.09;10564071;28;20082;-78
2022/03/13 07:47:44;;;;;;;12.20;7.70;;;;;;;1.81;65.39;101230.91;10564021;28;20055;-77
2022/03/13 07:52:45;;;;;;;12.25;8.48;;;;;;;1.97;65.24;101237.88;10562741;28;20044;-77
2022/03/13 07:57:46;;;;;;;15.73;9.27;;;;;;;2.21;65.31;101254.75;10565312;28;20427;-77
2022/03/13 08:02:48;;;;;;;11.93;8.68;;;;;;;2.22;65.10;101261.72;10565715;28;20040;-78
2022/03/13 08:07:49;;;;;;;13.80;8.35;;;;;;;1.97;64.68;101279.81;10563637;28;20478;-77
2022/03/13 08:12:54;;;;;;;12.27;8.38;;;;;;;1.45;64.78;101210.34;10565405;28;20093;-77
2022/03/13 08:17:55;;;;;;;16.60;8.55;;;;;;;1.01;65.19;101124.72;10564208;28;20062;-77
2022/03/13 08:22:55;;;;;;;13.82;8.32;;;;;;;1.80;64.67;101273.78;10564400;28;20517;-77
2022/03/13 08:27:56;;;;;;;13.13;8.40;;;;;;;0.59;64.36;101044.31;10562500;28;20048;-78
2022/03/13 08:32:57;;;;;;;18.73;8.18;;;;;;;2.24;64.31;101251.13;10561602;28;20047;-77
2022/03/13 08:37:58;;;;;;;12.30;7.57;;;;;;;2.82;62.83;101267.72;10564934;28;20061;-77
2022/03/13 08:42:59;;;;;;;13.23;9.18;;;;;;;2.69;63.58;101225.63;10554470;28;20039;-77
2022/03/13 08:48:00;;;;;;;14.52;9.05;;;;;;;1.99;63.28;101155.63;10571649;28;20051;-75
2022/03/13 08:53:01;;;;;;;14.43;9.38;;;;;;;1.97;61.86;101212.50;10571282;28;20047;-78
2022/03/13 08:58:02;;;;;;;18.77;9.88;;;;;;;2.37;63.74;101275.69;10568421;28;20044;-76
2022/03/13 09:03:02;;;;;;;15.40;9.55;;;;;;;2.02;63.57;101205.22;10570741;28;20124;-77
2022/03/13 09:08:03;;;;;;;16.80;9.95;;;;;;;2.76;63.38;101275.97;10572118;28;20039;-77
2022/03/13 09:13:04;;;;;;;16.20;10.02;;;;;;;1.85;63.46;101091.88;10570205;28;20073;-76
2022/03/13 09:18:06;;;;;;;17.90;10.68;;;;;;;2.65;63.56;101217.13;10568472;28;20142;-76
2022/03/13 09:23:07;;;;;;;15.65;9.98;;;;;;;3.05;62.27;101277.63;10572136;28;20087;-76
2022/03/13 09:28:08;;;;;;;16.67;10.85;;;;;;;3.09;63.29;101239.72;10571156;28;20075;-77
2022/03/13 09:33:09;;;;;;;14.60;10.05;;;;;;;2.55;61.53;101116.34;10570938;28;20044;-77
2022/03/13 09:38:10;;;;;;;16.02;9.90;;;;;;;2.83;60.85;101157.41;10568551;28;20145;-77
2022/03/13 09:43:11;;;;;;;12.07;8.18;;;;;;;3.63;58.91;101213.44;10569751;28;20122;-77
2022/03/13 09:48:15;;;;;;;13.38;8.98;;;;;;;3.58;60.22;101247.03;10567367;28;20059;-77
2022/03/13 09:53:16;;;;;;;12.85;8.68;;;;;;;3.88;61.29;101282.75;10567753;28;20054;-77
2022/03/13 09:58:17;;;;;;;12.57;8.32;;;;;;;3.02;61.23;101149.19;10569820;28;20058;-77
2022/03/13 10:03:19;;;;;;;11.82;8.27;;;;;;;2.98;61.43;101177.41;10555811;28;20517;-77
2022/03/13 10:08:29;;;;;;;20.88;11.43;;;;;;;3.27;60.33;101276.25;10567505;28;20039;-77
2022/03/13 10:13:43;;;;;;;24.92;10.80;;;;;;;3.38;61.04;101250.13;10567876;28;20051;-77
2022/03/13 10:18:44;;;;;;;16.92;9.70;;;;;;;3.37;60.24;101232.69;10569267;28;20380;-77
2022/03/13 10:23:48;;;;;;;17.70;9.40;;;;;;;3.26;59.58;101219.41;10567183;28;20039;-76
2022/03/13 10:28:49;;;;;;;12.82;8.85;;;;;;;2.45;60.47;101112.59;10563640;28;20064;-76
2022/03/13 10:33:53;;;;;;;13.63;8.70;;;;;;;3.31;59.74;101248.84;10547719;28;20106;-76
2022/03/13 10:38:54;;;;;;;12.40;8.35;;;;;;;2.66;59.91;101110.41;10552253;28;20420;-76
2022/03/13 10:43:58;;;;;;;15.38;8.60;;;;;;;3.39;59.17;101228.19;10565445;28;20039;-76
2022/03/13 10:49:00;;;;;;;12.95;8.50;;;;;;;4.35;58.83;101258.50;10567569;28;20052;-77
2022/03/13 10:54:02;;;;;;;15.35;8.35;;;;;;;4.51;56.35;101158.31;10567184;28;20040;-77
2022/03/13 10:59:29;;;;;;;18.63;7.82;;;;;;;5.17;55.49;101231.72;10566833;28;20084;-77
2022/03/13 11:04:30;;;;;;;15.90;7.80;;;;;;;5.25;56.47;101235.47;10538642;28;20052;-77
2022/03/13 11:09:31;;;;;;;13.18;8.00;;;;;;;5.25;56.75;101232.84;10566503;28;20050;-76
2022/03/13 11:14:33;;;;;;;12.95;7.78;;;;;;;5.38;55.14;101224.88;10566721;28;20044;-78
2022/03/13 11:19:36;;;;;;;12.13;8.73;;;;;;;5.58;55.30;101222.56;10567327;28;20047;-77
2022/03/13 11:24:38;;;;;;;11.98;7.93;;;;;;;4.00;55.51;101097.91;10528746;28;20052;-78
2022/03/13 11:29:42;;;;;;;11.27;8.05;;;;;;;4.09;56.55;101152.47;10481659;28;20055;-77
2022/03/13 11:35:13;;;;;;;14.33;9.47;;;;;;;4.44;56.52;101237.78;10478752;28;20047;-78
2022/03/13 11:40:16;;;;;;;11.55;7.85;;;;;;;4.41;55.75;101236.22;10482056;28;20058;-78
2022/03/13 11:45:34;;;;;;;15.68;8.60;;;;;;;4.38;55.98;101254.84;10478181;28;20098;-76
2022/03/13 11:50:55;;;;;;;9.95;7.90;;;;;;;4.00;55.97;101205.69;10462018;28;20045;-79
2022/03/13 11:56:09;;;;;;;13.57;9.60;;;;;;;3.94;56.56;101248.19;10453834;28;20232;-78
2022/03/13 12:01:32;;;;;;;16.33;8.48;;;;;;;3.13;56.72;101124.84;10454397;28;20116;-79
2022/03/13 12:06:52;;;;;;;15.80;9.77;;;;;;;3.18;57.49;101185.78;10464854;28;20143;-79
2022/03/13 12:11:55;;;;;;;13.75;7.65;;;;;;;3.45;57.88;101253.22;10501022;28;20400;-75
2022/03/13 12:17:08;;;;;;;41.77;27.20;;;;;;;3.09;57.67;101223.13;10502822;28;20115;-74
2022/03/13 12:22:08;;;;;;;15.57;8.38;;;;;;;2.11;57.97;101061.47;10503705;28;20539;-77
2022/03/13 12:27:09;;;;;;;14.57;9.25;;;;;;;2.80;57.79;101198.72;10485458;28;20136;-75
2022/03/13 12:32:11;;;;;;;18.27;9.90;;;;;;;3.10;58.68;101264.19;10477124;28;20094;-75
2022/03/13 12:37:12;;;;;;;11.52;7.88;;;;;;;2.88;58.27;101194.69;10471608;28;20482;-76
2022/03/13 12:42:13;;;;;;;28.90;10.60;;;;;;;2.09;58.72;101053.69;10481905;28;20047;-75
2022/03/13 12:47:26;;;;;;;16.67;8.30;;;;;;;3.46;58.32;101268.03;10501278;28;20059;-77
2022/03/13 12:52:27;;;;;;;25.23;9.67;;;;;;;3.12;59.00;101213.28;10503249;28;20140;-75
2022/03/13 12:57:28;;;;;;;11.05;7.15;;;;;;;3.04;58.45;101206.84;10501545;28;20353;-74
2022/03/13 13:02:32;;;;;;;11.68;8.00;;;;;;;2.18;59.08;101095.03;10484002;28;20051;-74
2022/03/13 13:07:39;;;;;;;14.07;7.25;;;;;;;3.16;58.18;101235.75;10493363;28;20097;-74
2022/03/13 13:12:41;;;;;;;14.57;6.43;;;;;;;3.42;58.64;101262.13;10501512;28;20044;-74
2022/03/13 13:17:45;;;;;;;11.05;7.28;;;;;;;3.57;58.41;101269.00;10501822;28;20040;-74
2022/03/13 13:22:48;;;;;;;11.93;7.93;;;;;;;3.83;58.22;101267.31;10501001;28;20059;-74
2022/03/13 13:27:54;;;;;;;11.88;7.57;;;;;;;3.61;59.10;101278.38;10492243;28;20388;-74
2022/03/13 13:33:03;;;;;;;12.57;7.93;;;;;;;2.66;58.77;101155.88;10461935;28;20048;-74
2022/03/13 13:38:14;;;;;;;15.80;7.68;;;;;;;3.35;59.19;101279.22;10466997;28;20198;-74
2022/03/13 13:43:21;;;;;;;12.82;9.88;;;;;;;3.11;59.60;101290.38;10482599;28;20400;-74
2022/03/13 13:48:25;;;;;;;11.38;7.18;;;;;;;2.06;59.37;101156.09;10497631;28;20419;-75
2022/03/13 13:53:26;;;;;;;16.17;7.13;;;;;;;1.89;59.91;101144.03;10494496;28;20563;-75
2022/03/13 13:58:29;;;;;;;10.48;7.28;;;;;;;2.53;59.59;101269.50;10493742;28;20119;-75
2022/03/13 14:03:29;;;;;;;27.80;16.75;;;;;;;2.66;59.92;101315.03;10477747;28;20043;-74
2022/03/13 14:08:31;;;;;;;19.15;14.27;;;;;;;1.66;60.56;101165.50;10457472;28;20064;-74
2022/03/13 14:13:32;;;;;;;86.00;39.33;;;;;;;1.92;60.45;101242.56;10468782;28;20131;-75
2022/03/13 14:18:33;;;;;;;36.22;17.90;;;;;;;1.62;60.70;101201.50;10492032;28;20040;-74
2022/03/13 14:23:34;;;;;;;84.82;37.65;;;;;;;1.66;60.92;101223.97;10496701;28;20029;-74
2022/03/13 14:28:35;;;;;;;34.50;14.27;;;;;;;2.28;61.33;101334.75;10496894;28;20040;-75
2022/03/13 14:33:40;;;;;;;21.63;10.10;;;;;;;2.17;61.36;101326.66;10496516;28;20487;-74
2022/03/13 14:38:47;;;;;;;22.60;12.00;;;;;;;2.35;61.26;101343.09;10496635;28;20571;-74
2022/03/13 14:43:49;;;;;;;33.42;14.80;;;;;;;2.39;60.49;101359.47;10496364;28;20047;-74
2022/03/13 14:48:50;;;;;;;108.60;45.38;;;;;;;2.29;61.22;101369.69;10496397;28;20060;-74
2022/03/13 14:53:51;;;;;;;30.00;14.02;;;;;;;1.51;61.40;101274.59;10482652;28;20090;-75
2022/03/13 14:58:53;;;;;;;23.33;13.32;;;;;;;2.09;61.59;101367.34;10473948;28;20032;-74
2022/03/13 15:03:55;;;;;;;19.45;10.25;;;;;;;2.04;61.86;101372.88;10480374;28;20090;-74
2022/03/13 15:08:55;;;;;;;18.10;10.52;;;;;;;1.27;62.40;101251.50;10485055;28;20078;-75
2022/03/13 15:13:56;;;;;;;23.58;12.48;;;;;;;2.21;62.12;101403.34;10479141;28;20144;-74
2022/03/13 15:18:57;;;;;;;16.45;8.95;;;;;;;2.10;62.20;101409.22;10479409;28;20045;-75
2022/03/13 15:23:58;;;;;;;27.42;12.38;;;;;;;1.83;62.43;101403.75;10483118;28;20049;-74
2022/03/13 15:28:59;;;;;;;25.05;12.90;;;;;;;1.78;63.08;101414.47;10484100;28;20040;-74
2022/03/13 15:34:01;;;;;;;16.98;9.55;;;;;;;1.82;62.46;101429.13;10481701;28;20385;-76
2022/03/13 15:39:02;;;;;;;16.40;8.88;;;;;;;0.84;62.94;101276.56;10481376;28;20055;-74
2022/03/13 15:44:03;;;;;;;15.73;8.68;;;;;;;1.08;62.59;101322.31;10481589;28;20052;-77
2022/03/13 15:49:04;;;;;;;15.57;8.63;;;;;;;1.05;62.88;101351.28;10481977;28;20067;-74
2022/03/13 15:54:05;;;;;;;16.63;7.97;;;;;;;-0.40;63.34;101118.47;10481517;28;20420;-74
2022/03/13 15:59:06;;;;;;;11.23;7.78;;;;;;;1.68;63.52;101468.31;10481579;28;20055;-74
2022/03/13 16:04:07;;;;;;;15.60;7.13;;;;;;;1.64;63.37;101479.88;10481238;28;20056;-74
2022/03/13 16:09:07;;;;;;;13.32;7.68;;;;;;;1.48;63.42;101450.22;10482655;28;20045;-74
2022/03/13 16:14:09;;;;;;;14.07;8.35;;;;;;;1.37;63.46;101451.63;10485765;28;20049;-74
2022/03/13 16:19:13;;;;;;;17.38;11.00;;;;;;;1.51;64.28;101484.94;10492378;28;20043;-74
2022/03/13 16:24:14;;;;;;;15.75;9.65;;;;;;;0.92;64.33;101389.47;10490243;28;20040;-75
2022/03/13 16:29:15;;;;;;;13.48;8.63;;;;;;;1.42;64.35;101471.50;10492756;28;20041;-74
2022/03/13 16:34:15;;;;;;;26.85;15.43;;;;;;;1.18;64.45;101431.75;10491582;28;20040;-74
2022/03/13 16:39:16;;;;;;;17.05;9.63;;;;;;;1.51;64.01;101490.16;10490874;28;20044;-74
2022/03/13 16:44:18;;;;;;;19.10;11.57;;;;;;;1.23;63.92;101453.31;10481885;28;20515;-75
2022/03/13 16:49:19;;;;;;;20.23;9.73;;;;;;;1.48;64.77;101497.34;10479280;28;20056;-76
2022/03/13 16:54:20;;;;;;;17.13;7.95;;;;;;;1.60;63.98;101533.38;10488347;28;20040;-75
2022/03/13 16:59:22;;;;;;;18.92;10.23;;;;;;;1.14;64.28;101457.25;10498747;28;20036;-73
2022/03/13 17:04:23;;;;;;;21.30;10.70;;;;;;;0.17;64.38;101313.13;10499578;28;20472;-74
2022/03/13 17:09:24;;;;;;;21.73;9.63;;;;;;;1.41;65.16;101553.56;10491474;28;20045;-75
2022/03/13 17:14:26;;;;;;;14.02;7.75;;;;;;;0.45;65.17;101411.06;10485207;28;20040;-73
2022/03/13 17:19:27;;;;;;;14.18;8.50;;;;;;;1.10;65.33;101531.59;10501378;28;20037;-73
2022/03/13 17:24:28;;;;;;;15.05;7.80;;;;;;;0.97;65.44;101517.44;10501641;28;20037;-73
2022/03/13 17:29:29;;;;;;;15.55;7.90;;;;;;;1.06;65.84;101551.00;10501114;28;20043;-73
2022/03/13 17:34:30;;;;;;;11.48;7.43;;;;;;;-0.02;66.69;101388.13;10500992;28;20040;-73
2022/03/13 17:39:31;;;;;;;12.90;7.90;;;;;;;0.43;66.09;101480.88;10499840;28;20093;-73
2022/03/13 17:44:33;;;;;;;13.88;8.02;;;;;;;0.48;66.11;101483.25;10501015;28;20028;-73
2022/03/13 17:49:34;;;;;;;13.55;8.05;;;;;;;1.02;66.37;101596.56;10500482;28;20092;-74
2022/03/13 17:54:36;;;;;;;12.75;7.20;;;;;;;0.23;66.73;101458.31;10488699;28;20043;-75
2022/03/13 17:59:37;;;;;;;11.23;7.57;;;;;;;0.82;67.08;101569.59;10486002;28;20147;-76
2022/03/13 18:04:38;;;;;;;17.85;7.30;;;;;;;0.64;67.16;101566.09;10475402;28;20075;-76
2022/03/13 18:09:39;;;;;;;15.25;8.30;;;;;;;1.09;66.51;101601.41;10495149;28;20596;-76
2022/03/13 18:14:39;;;;;;;22.20;10.20;;;;;;;0.70;66.36;101551.91;10497982;28;20586;-77
2022/03/13 18:19:40;;;;;;;13.82;8.68;;;;;;;0.92;67.18;101598.75;10496750;28;20033;-75
2022/03/13 18:24:42;;;;;;;19.42;9.32;;;;;;;0.97;66.87;101606.41;10493540;28;20049;-76
2022/03/13 18:29:42;;;;;;;18.05;9.48;;;;;;;0.51;67.19;101532.78;10493089;28;20070;-76
2022/03/13 18:34:45;;;;;;;17.35;9.25;;;;;;;1.07;67.49;101618.09;10491375;28;20135;-76
2022/03/13 18:39:46;;;;;;;14.35;9.77;;;;;;;1.09;68.07;101609.25;10496375;28;20090;-76
2022/03/13 18:44:47;;;;;;;15.20;10.35;;;;;;;0.80;67.32;101550.50;10495252;28;20051;-76
2022/03/13 18:49:48;;;;;;;15.30;8.75;;;;;;;1.30;67.33;101630.06;10482092;28;20501;-77
2022/03/13 18:54:49;;;;;;;13.20;8.65;;;;;;;0.74;67.20;101545.59;10485759;28;20059;-77
2022/03/13 18:59:50;;;;;;;22.45;12.30;;;;;;;-0.29;67.08;101364.19;10485390;28;20032;-76
2022/03/13 19:04:51;;;;;;;14.15;8.65;;;;;;;1.18;67.26;101599.25;10492155;28;20458;-76
2022/03/13 19:09:52;;;;;;;14.10;8.18;;;;;;;0.61;67.10;101520.97;10475075;28;20043;-77
2022/03/13 19:14:58;;;;;;;16.90;10.48;;;;;;;0.03;67.21;101447.97;10496763;28;20044;-77
2022/03/13 19:20:00;;;;;;;21.98;9.10;;;;;;;1.20;68.01;101645.38;10485400;28;20570;-77
2022/03/13 19:25:04;;;;;;;15.45;10.07;;;;;;;1.17;68.25;101658.63;10455624;28;20068;-76
2022/03/13 19:30:07;;;;;;;15.70;9.43;;;;;;;1.16;68.36;101648.22;10455736;28;20048;-77
2022/03/13 19:35:09;;;;;;;12.88;8.73;;;;;;;0.21;68.38;101512.44;10454792;28;20037;-77
2022/03/13 19:40:11;;;;;;;13.60;8.43;;;;;;;0.19;68.70;101525.56;10455097;28;20041;-77
2022/03/13 19:45:12;;;;;;;17.65;11.00;;;;;;;0.86;68.97;101654.84;10454325;28;20044;-77
2022/03/13 19:50:13;;;;;;;18.05;9.95;;;;;;;0.34;69.93;101597.19;10453393;28;20041;-76
2022/03/13 19:55:16;;;;;;;15.40;10.27;;;;;;;0.59;70.04;101653.53;10454338;28;20079;-76
2022/03/13 20:00:21;;;;;;;16.13;9.85;;;;;;;0.63;71.27;101660.34;10453636;28;20132;-77
2022/03/13 20:05:24;;;;;;;13.60;9.02;;;;;;;0.63;71.40;101668.19;10453605;28;20093;-77
2022/03/13 20:10:27;;;;;;;15.25;8.90;;;;;;;0.50;71.05;101661.81;10453858;28;20068;-77
2022/03/13 20:15:28;;;;;;;25.73;12.60;;;;;;;0.31;71.71;101639.13;10454794;28;20056;-76
2022/03/13 20:20:29;;;;;;;20.08;10.48;;;;;;;-0.29;71.65;101526.06;10453090;28;20037;-76
2022/03/13 20:25:31;;;;;;;20.92;11.63;;;;;;;0.30;72.19;101655.75;10453840;28;20128;-76
2022/03/13 20:30:31;;;;;;;21.65;12.10;;;;;;;0.46;72.38;101676.81;10456567;28;20090;-76
2022/03/13 20:35:35;;;;;;;18.60;10.77;;;;;;;0.27;72.50;101655.91;10461282;28;20098;-77
2022/03/13 20:40:38;;;;;;;15.68;9.77;;;;;;;0.32;72.92;101673.97;10461083;28;20053;-77
2022/03/13 20:45:40;;;;;;;17.25;9.05;;;;;;;-0.02;72.84;101605.78;10460583;28;20049;-76
2022/03/13 20:50:41;;;;;;;16.05;10.07;;;;;;;-0.74;71.54;101490.66;10461036;28;20048;-76
2022/03/13 20:55:42;;;;;;;16.52;10.68;;;;;;;-0.02;71.92;101631.06;10460426;28;20083;-76
2022/03/13 21:00:43;;;;;;;18.08;9.32;;;;;;;-0.94;72.64;101502.78;10461547;28;20119;-76
2022/03/13 21:05:45;;;;;;;19.80;9.52;;;;;;;-0.92;72.10;101494.91;10468483;28;20127;-76
2022/03/13 21:10:47;;;;;;;23.67;13.75;;;;;;;-0.76;73.12;101542.06;10460354;28;20075;-77
2022/03/13 21:15:48;;;;;;;16.85;10.00;;;;;;;-0.92;73.63;101515.78;10459707;28;20082;-76
2022/03/13 21:20:49;;;;;;;36.53;21.65;;;;;;;-0.05;73.07;101660.78;10460267;28;20047;-77
2022/03/13 21:25:51;;;;;;;22.42;12.48;;;;;;;0.11;72.92;101674.00;10459782;28;20058;-76
2022/03/13 21:30:52;;;;;;;22.42;10.55;;;;;;;-0.72;72.82;101523.59;10459493;28;20086;-76
2022/03/13 21:35:53;;;;;;;14.93;8.90;;;;;;;-0.11;72.97;101640.16;10458722;28;20086;-76
2022/03/13 21:40:54;;;;;;;17.95;10.73;;;;;;;0.11;73.20;101675.78;10458960;28;20036;-77
2022/03/13 21:45:55;;;;;;;15.27;8.55;;;;;;;-0.88;73.03;101506.91;10458879;28;20052;-76
2022/03/13 21:50:56;;;;;;;14.52;9.07;;;;;;;-0.13;73.43;101641.13;10458211;28;20044;-76
2022/03/13 21:55:57;;;;;;;14.18;9.02;;;;;;;-0.05;73.44;101657.31;10458716;28;20060;-76
2022/03/13 22:00:59;;;;;;;14.65;8.73;;;;;;;-0.15;73.92;101650.78;10458548;28;20120;-76
2022/03/13 22:06:00;;;;;;;15.30;9.20;;;;;;;-0.32;74.41;101655.00;10458454;28;20048;-76
2022/03/13 22:11:01;;;;;;;13.85;9.43;;;;;;;-0.42;74.93;101655.44;10458559;28;20044;-76
2022/03/13 22:16:02;;;;;;;17.25;9.45;;;;;;;-1.19;74.61;101554.28;10458442;28;20067;-76
2022/03/13 22:21:03;;;;;;;14.60;8.50;;;;;;;-0.58;75.16;101669.13;10473083;28;20037;-76
2022/03/13 22:26:04;;;;;;;14.30;9.50;;;;;;;-0.81;75.26;101650.97;10457002;28;20041;-77
2022/03/13 22:31:04;;;;;;;15.18;9.50;;;;;;;-0.98;75.25;101639.47;10492908;28;20047;-77
2022/03/13 22:36:05;;;;;;;18.90;9.43;;;;;;;-1.39;75.38;101594.19;10498835;28;20122;-77
2022/03/13 22:41:06;;;;;;;14.27;9.05;;;;;;;-1.26;75.54;101641.47;10499166;28;20055;-77
2022/03/13 22:46:07;;;;;;;14.10;9.15;;;;;;;-1.49;75.68;101632.81;10496912;28;20052;-76
2022/03/13 22:51:09;;;;;;;14.68;9.55;;;;;;;-1.33;75.93;101676.53;10497672;28;20040;-76
2022/03/13 22:56:12;;;;;;;14.68;9.00;;;;;;;-1.60;76.20;101658.41;10496013;28;20045;-76
2022/03/13 23:01:16;;;;;;;14.48;8.52;;;;;;;-2.36;76.19;101556.19;10496780;28;20036;-76